createdAt,value
2019-03-26T18:20:05.986Z,3.23
2019-03-26T18:22:35.966Z,2.80
2019-03-26T18:25:06.807Z,2.83
2019-03-26T18:27:36.752Z,2.90
2019-03-26T18:30:06.814Z,2.63
2019-03-26T18:32:37.852Z,3.20
2019-03-26T18:35:08.008Z,2.37
2019-03-26T18:37:38.281Z,2.90
2019-03-26T18:40:08.363Z,2.50
2019-03-26T18:42:43.849Z,2.80
2019-03-26T18:45:10.337Z,2.40
2019-03-26T18:47:40.333Z,2.83
2019-03-26T18:50:11.713Z,2.60
2019-03-26T18:52:42.004Z,2.50
2019-03-26T18:55:12.663Z,2.70
2019-03-26T18:57:42.655Z,2.70
2019-03-26T19:00:13.131Z,2.70
2019-03-26T19:02:44.966Z,2.50
2019-03-26T19:05:14.965Z,2.70
2019-03-26T19:07:45.262Z,2.83
2019-03-26T19:10:25.245Z,2.60
2019-03-26T19:12:57.294Z,2.57
2019-03-26T19:15:27.761Z,2.67
2019-03-26T19:17:57.743Z,3.17
2019-03-26T19:20:27.755Z,2.73
2019-03-26T19:22:57.880Z,2.70
2019-03-26T19:25:27.925Z,2.90
2019-03-26T19:27:57.890Z,3.10
2019-03-26T19:30:27.888Z,3.37
2019-03-26T19:32:58.020Z,2.87
2019-03-26T19:35:28.471Z,3.30
2019-03-26T19:37:58.730Z,3.37
2019-03-26T19:40:29.040Z,2.77
2019-03-26T19:43:10.129Z,2.83
2019-03-26T19:45:32.005Z,2.90
2019-03-26T19:48:02.106Z,2.90
2019-03-26T19:50:32.374Z,3.20
2019-03-26T19:53:02.326Z,3.33
2019-03-26T19:55:32.958Z,3.20
2019-03-26T19:58:03.122Z,3.33
2019-03-26T20:00:33.129Z,3.80
2019-03-26T20:03:03.162Z,3.33
2019-03-26T20:05:35.369Z,3.90
2019-03-26T20:08:04.991Z,3.10
2019-03-26T20:10:35.006Z,3.20
2019-03-26T20:13:05.059Z,3.43
2019-03-26T20:15:35.158Z,3.90
2019-03-26T20:18:05.338Z,3.90
2019-03-26T20:20:35.372Z,3.70
2019-03-26T20:23:05.532Z,3.30
2019-03-26T20:25:35.690Z,3.80
2019-03-26T20:28:05.774Z,3.70
2019-03-26T20:30:35.771Z,4.27
2019-03-26T20:33:05.822Z,3.97
2019-03-26T20:35:35.857Z,3.83
2019-03-26T20:41:01.116Z,4.77
2019-03-26T20:43:37.575Z,4.47
2019-03-26T20:46:06.247Z,4.63
2019-03-26T20:48:37.375Z,4.60
2019-03-26T20:51:08.474Z,4.20
2019-03-26T20:53:39.635Z,4.53
2019-03-26T20:56:12.419Z,4.07
2019-03-26T20:58:43.575Z,4.50
2019-03-26T21:01:14.802Z,3.93
2019-03-26T21:03:45.874Z,4.57
2019-03-26T21:06:17.138Z,4.37
2019-03-26T21:08:48.191Z,4.43
2019-03-26T21:11:19.302Z,4.10
2019-03-26T21:13:51.269Z,4.13
2019-03-26T21:16:22.513Z,3.90
2019-03-26T21:18:54.461Z,4.00
2019-03-26T21:21:25.612Z,3.87
2019-03-26T21:23:56.948Z,4.07
2019-03-26T21:26:41.079Z,4.03
2019-03-26T21:29:18.792Z,4.17
2019-03-26T21:31:50.140Z,4.50
2019-03-26T21:34:30.478Z,4.53
2019-03-26T21:36:55.025Z,4.13
2019-03-26T21:39:26.336Z,4.70
2019-03-26T21:41:57.698Z,4.77
2019-03-26T21:44:29.113Z,4.60
2019-03-26T21:47:00.185Z,4.20
2019-03-26T21:49:31.734Z,4.80
2019-03-26T21:52:02.869Z,4.00
2019-03-26T21:54:35.241Z,4.27
2019-03-26T21:57:06.400Z,4.40
2019-03-26T21:59:37.424Z,4.43
2019-03-26T22:02:08.587Z,4.53
2019-03-26T22:04:40.477Z,5.57
2019-03-26T22:07:11.566Z,5.00
2019-03-26T22:09:42.698Z,5.13
2019-03-26T22:12:13.771Z,4.33
2019-03-26T22:14:44.949Z,4.97
2019-03-26T22:17:15.981Z,4.30
2019-03-26T22:19:47.071Z,4.50
2019-03-26T22:22:18.180Z,4.10
2019-03-26T22:24:49.228Z,4.40
2019-03-26T22:27:20.295Z,4.67
2019-03-26T22:29:51.353Z,4.03
2019-03-26T22:32:22.392Z,4.60
2019-03-26T22:34:53.469Z,4.60
2019-03-26T22:37:24.466Z,4.70
2019-03-26T22:39:55.516Z,4.77
2019-03-26T22:42:26.545Z,4.63
2019-03-26T22:44:57.604Z,4.93
2019-03-26T22:47:28.844Z,4.70
2019-03-26T22:49:59.943Z,4.90
2019-03-26T22:52:31.000Z,4.50
2019-03-26T22:55:02.082Z,4.60
2019-03-26T22:57:33.149Z,4.83
2019-03-26T23:00:05.601Z,5.20
2019-03-26T23:02:38.000Z,4.93
2019-03-26T23:05:09.908Z,5.33
2019-03-26T23:07:40.900Z,4.50
2019-03-26T23:10:12.856Z,5.03
2019-03-26T23:12:43.889Z,5.27
2019-03-26T23:15:25.461Z,4.80
2019-03-26T23:17:56.611Z,4.97
2019-03-26T23:20:27.720Z,5.30
2019-03-26T23:22:58.841Z,5.27
2019-03-26T23:25:29.996Z,4.93
2019-03-26T23:28:01.149Z,4.77
2019-03-26T23:30:32.389Z,4.53
2019-03-26T23:33:03.497Z,4.77
2019-03-26T23:35:34.497Z,5.30
2019-03-26T23:38:05.499Z,4.83
2019-03-26T23:40:36.510Z,4.97
2019-03-26T23:43:07.514Z,5.07
2019-03-26T23:45:38.870Z,4.80
2019-03-26T23:48:09.858Z,5.00
2019-03-26T23:50:41.166Z,5.40
2019-03-26T23:53:13.221Z,5.67
2019-03-26T23:55:45.337Z,5.27
2019-03-26T23:58:16.393Z,5.13
